Wilforce — LARL7 — position and weather

sailwx.info

Track history (hours):
 
Tides and Currents Weather Stations Pressure Air Temp Water Temp Dewpoint Dewpoint Depression Visibility Wind Speed Wind Dir Waves Ship Positions

Wilforce

Last reported at 2018-May-26 22:56 UTC. Time now 2018-May-28 09:54 UTC.
Position N 35°58' W 005°51'.

Length 290 m; draft 10.6 m.

Type: Ship (hazmat cat D). MMSI: 258702000.

Date/timePositionNaut miles runAvg speedWind from/ knotsBaromVisibWave heightAir tempDewpointWater temp
2018-May-26 22:56N 35°58' W 005°51'815.7
2018-May-26 22:25N 35°58' W 005°41'615.0
2018-May-26 22:00N 35°58' W 005°33'713.6
2018-May-26 21:30N 35°60' W 005°25'612.7
2018-May-26 21:00N 36°02' W 005°18'612.7
2018-May-26 20:30N 36°04' W 005°10'1214.0
2018-May-26 19:37N 36°06' W 004°55'19514.4
2018-May-26 06:02N 37°11' W 001°06'915.6
2018-May-26 05:29N 37°17' W 000°58'715.2
2018-May-26 05:00N 37°22' W 000°51'714.8
2018-May-26 04:30N 37°26' W 000°44'714.5
2018-May-26 04:00N 37°31' W 000°37'714.5
2018-May-26 03:30N 37°37' W 000°31'815.2
2018-May-26 03:00N 37°43' W 000°26'815.5
2018-May-26 02:30N 37°50' W 000°21'815.5
2018-May-26 02:00N 37°56' W 000°15'815.3
2018-May-26 01:30N 38°03' W 000°10'815.4
2018-May-26 01:00N 38°09' W 000°05'1315.9
2018-May-26 00:11N 38°20' E 000°04'316.2
2018-May-26 00:00N 38°23' E 000°06'816.4
2018-May-25 23:30N 38°29' E 000°12'816.6
2018-May-25 23:00N 38°36' E 000°18'816.4
2018-May-25 22:30N 38°43' E 000°23'14315.6
2018-May-25 13:22N 40°49' E 001°51'715.9
2018-May-25 12:56N 40°55' E 001°55'716.1
2018-May-25 12:30N 41°01' E 002°00'815.9
2018-May-25 12:00N 41°08' E 002°05'815.0
2018-May-25 11:30N 41°15' E 002°10'510.0
2018-May-25 11:00N 41°20' E 002°10'1 0.1
2018-May-25 04:53N 41°21' E 002°10'0 0.0
2018-May-25 02:53N 41°21' E 002°10'0 0.0
2018-May-25 02:29N 41°21' E 002°10'0 0.0
2018-May-24 08:51N 41°21' E 002°10'0 0.0
2018-May-24 08:30N 41°21' E 002°10'0 0.0
2018-May-24 08:00N 41°21' E 002°10'1 2.2
2018-May-24 07:30N 41°19' E 002°10'3 6.1
2018-May-24 07:00N 41°17' E 002°11'1 2.7
2018-May-24 06:30N 41°15' E 002°12'0 0.4
2018-May-24 06:01N 41°15' E 002°12'0 0.3
2018-May-24 05:30N 41°15' E 002°12'0 0.2
2018-May-24 05:00N 41°15' E 002°12'0 0.4
2018-May-24 04:31N 41°15' E 002°12'1 2.7
2018-May-24 04:00N 41°14' E 002°13'2 4.4
2018-May-24 03:30N 41°12' E 002°15'2 4.7
2018-May-24 03:00N 41°11' E 002°17'4 7.8
2018-May-24 02:30N 41°09' E 002°22'510.5
2018-May-24 02:00N 41°06' E 002°28'611.9
2018-May-24 01:30N 41°03' E 002°35'612.5
2018-May-24 01:00N 41°00' E 002°42'612.2
2018-May-24 00:30N 40°57' E 002°49'612.1
2018-May-24 00:00N 40°54' E 002°56'611.9
2018-May-23 23:30N 40°51' E 003°03'612.0
2018-May-23 23:01N 40°48' E 003°09'611.9
2018-May-23 22:30N 40°44' E 003°16'611.9
2018-May-23 22:00N 40°41' E 003°22'712.0
2018-May-23 21:24N 40°37' E 003°30'512.1
2018-May-23 21:00N 40°34' E 003°35'612.0
2018-May-23 20:30N 40°30' E 003°41'1412.5
2018-May-23 19:22N 40°21' E 003°56'2112.4
2018-May-23 17:39N 40°09' E 004°19'712.3
2018-May-23 17:05N 40°07' E 004°28'2112.4
2018-May-23 15:24N 39°59' E 004°53'512.6
2018-May-23 15:00N 39°58' E 004°59'1413.3
2018-May-23 13:55N 39°51' E 005°16'  
2018-May-17 19:12N 33°01' E 028°02'117 9.3
2018-May-17 06:43N 32°22' E 030°12'17 9.2
2018-May-17 04:53N 32°16' E 030°31'7 9.7
2018-May-17 04:12N 32°13' E 030°38'5 9.9
2018-May-17 03:43N 32°11' E 030°44'2 9.9
2018-May-17 03:30N 32°11' E 030°46'510.2
2018-May-17 03:00N 32°09' E 030°52'710.4
2018-May-17 02:22N 32°06' E 030°59'410.1
2018-May-17 01:58N 32°05' E 031°03'5 9.8
2018-May-17 01:28N 32°03' E 031°09'  
Track history (hours):
 
Tides and Currents Weather Stations Pressure Air Temp Water Temp Dewpoint Dewpoint Depression Visibility Wind Speed Wind Dir Waves Ship Positions

Wilforce

Last reported at 2018-May-26 22:56 UTC. Time now 2018-May-28 09:54 UTC.
Position N 35°58' W 005°51'.

Length 290 m; draft 10.6 m.

Type: Ship (hazmat cat D). MMSI: 258702000.

Date/timePositionNaut miles runAvg speedWind from/ knotsBaromVisibWave heightAir tempDewpointWater temp
2018-May-26 22:56N 35°58' W 005°51'815.7
2018-May-26 22:25N 35°58' W 005°41'615.0
2018-May-26 22:00N 35°58' W 005°33'713.6
2018-May-26 21:30N 35°60' W 005°25'612.7
2018-May-26 21:00N 36°02' W 005°18'612.7
2018-May-26 20:30N 36°04' W 005°10'1214.0
2018-May-26 19:37N 36°06' W 004°55'19514.4
2018-May-26 06:02N 37°11' W 001°06'915.6
2018-May-26 05:29N 37°17' W 000°58'715.2
2018-May-26 05:00N 37°22' W 000°51'714.8
2018-May-26 04:30N 37°26' W 000°44'714.5
2018-May-26 04:00N 37°31' W 000°37'714.5
2018-May-26 03:30N 37°37' W 000°31'815.2
2018-May-26 03:00N 37°43' W 000°26'815.5
2018-May-26 02:30N 37°50' W 000°21'815.5
2018-May-26 02:00N 37°56' W 000°15'815.3
2018-May-26 01:30N 38°03' W 000°10'815.4
2018-May-26 01:00N 38°09' W 000°05'1315.9
2018-May-26 00:11N 38°20' E 000°04'316.2
2018-May-26 00:00N 38°23' E 000°06'816.4
2018-May-25 23:30N 38°29' E 000°12'816.6
2018-May-25 23:00N 38°36' E 000°18'816.4
2018-May-25 22:30N 38°43' E 000°23'14315.6
2018-May-25 13:22N 40°49' E 001°51'715.9
2018-May-25 12:56N 40°55' E 001°55'716.1
2018-May-25 12:30N 41°01' E 002°00'815.9
2018-May-25 12:00N 41°08' E 002°05'815.0
2018-May-25 11:30N 41°15' E 002°10'510.0
2018-May-25 11:00N 41°20' E 002°10'1 0.1
2018-May-25 04:53N 41°21' E 002°10'0 0.0
2018-May-25 02:53N 41°21' E 002°10'0 0.0
2018-May-25 02:29N 41°21' E 002°10'0 0.0
2018-May-24 08:51N 41°21' E 002°10'0 0.0
2018-May-24 08:30N 41°21' E 002°10'0 0.0
2018-May-24 08:00N 41°21' E 002°10'1 2.2
2018-May-24 07:30N 41°19' E 002°10'3 6.1
2018-May-24 07:00N 41°17' E 002°11'1 2.7
2018-May-24 06:30N 41°15' E 002°12'0 0.4
2018-May-24 06:01N 41°15' E 002°12'0 0.3
2018-May-24 05:30N 41°15' E 002°12'0 0.2
2018-May-24 05:00N 41°15' E 002°12'0 0.4
2018-May-24 04:31N 41°15' E 002°12'1 2.7
2018-May-24 04:00N 41°14' E 002°13'2 4.4
2018-May-24 03:30N 41°12' E 002°15'2 4.7
2018-May-24 03:00N 41°11' E 002°17'4 7.8
2018-May-24 02:30N 41°09' E 002°22'510.5
2018-May-24 02:00N 41°06' E 002°28'611.9
2018-May-24 01:30N 41°03' E 002°35'612.5
2018-May-24 01:00N 41°00' E 002°42'612.2
2018-May-24 00:30N 40°57' E 002°49'612.1
2018-May-24 00:00N 40°54' E 002°56'611.9
2018-May-23 23:30N 40°51' E 003°03'612.0
2018-May-23 23:01N 40°48' E 003°09'611.9
2018-May-23 22:30N 40°44' E 003°16'611.9
2018-May-23 22:00N 40°41' E 003°22'712.0
2018-May-23 21:24N 40°37' E 003°30'512.1
2018-May-23 21:00N 40°34' E 003°35'612.0
2018-May-23 20:30N 40°30' E 003°41'1412.5
2018-May-23 19:22N 40°21' E 003°56'2112.4
2018-May-23 17:39N 40°09' E 004°19'712.3
2018-May-23 17:05N 40°07' E 004°28'2112.4
2018-May-23 15:24N 39°59' E 004°53'512.6
2018-May-23 15:00N 39°58' E 004°59'1413.3
2018-May-23 13:55N 39°51' E 005°16'  
2018-May-17 19:12N 33°01' E 028°02'117 9.3
2018-May-17 06:43N 32°22' E 030°12'17 9.2
2018-May-17 04:53N 32°16' E 030°31'7 9.7
2018-May-17 04:12N 32°13' E 030°38'5 9.9
2018-May-17 03:43N 32°11' E 030°44'2 9.9
2018-May-17 03:30N 32°11' E 030°46'510.2
2018-May-17 03:00N 32°09' E 030°52'710.4
2018-May-17 02:22N 32°06' E 030°59'410.1
2018-May-17 01:58N 32°05' E 031°03'5 9.8
2018-May-17 01:28N 32°03' E 031°09'  

Dump ship's entire track history